createdAt,value
2022-09-05T00:01:56.240Z,1.30
2022-09-05T00:04:29.937Z,1.48
2022-09-05T00:07:36.061Z,1.30
2022-09-05T00:10:36.208Z,1.52
2022-09-05T00:13:10.631Z,1.55
2022-09-05T00:21:48.254Z,1.60
2022-09-05T00:24:37.909Z,1.55
2022-09-05T00:25:00.950Z,1.50
2022-09-05T00:28:25.407Z,1.48
2022-09-05T00:31:55.990Z,1.73
2022-09-05T00:34:09.907Z,2.20
2022-09-05T00:36:47.346Z,2.13
2022-09-05T00:39:21.513Z,1.40
2022-09-05T00:41:52.419Z,1.75
2022-09-05T00:44:22.718Z,1.60
2022-09-05T00:47:05.859Z,1.50
2022-09-05T00:49:49.873Z,1.38
2022-09-05T00:52:41.235Z,1.60
2022-09-05T00:55:40.363Z,1.40
2022-09-05T00:58:34.034Z,1.58
2022-09-05T01:01:20.597Z,2.50
2022-09-05T01:04:12.463Z,4.05
2022-09-05T01:07:34.944Z,4.47
2022-09-05T01:10:14.153Z,4.55
2022-09-05T01:12:52.946Z,4.70
2022-09-05T01:15:35.221Z,3.38
2022-09-05T01:18:07.629Z,3.28
2022-09-05T01:20:46.602Z,3.22
2022-09-05T01:23:17.866Z,2.03
2022-09-05T01:25:54.793Z,1.67
2022-09-05T01:29:13.143Z,1.55
2022-09-05T01:31:40.461Z,1.77
2022-09-05T01:34:16.589Z,1.65
2022-09-05T01:37:24.698Z,1.40
2022-09-05T01:40:24.975Z,1.48
2022-09-05T01:43:23.707Z,1.52
2022-09-05T01:45:52.176Z,1.58
2022-09-05T01:48:57.109Z,1.33
2022-09-05T01:52:01.130Z,1.50
2022-09-05T01:54:36.474Z,1.80
2022-09-05T01:57:21.729Z,1.42
2022-09-05T01:59:51.228Z,1.45
2022-09-05T02:02:31.637Z,1.60
2022-09-05T02:05:48.709Z,1.58
2022-09-05T02:08:35.535Z,1.63
2022-09-05T02:11:07.110Z,1.65
2022-09-05T02:13:33.734Z,1.58
2022-09-05T02:16:12.351Z,1.40
2022-09-05T02:18:54.158Z,1.35
2022-09-05T02:21:57.198Z,1.30
2022-09-05T02:24:24.061Z,1.70
2022-09-05T02:27:06.301Z,1.60
2022-09-05T02:30:02.455Z,1.42
2022-09-05T02:32:43.252Z,1.40
2022-09-05T02:35:10.026Z,1.42
2022-09-05T02:40:27.823Z,1.40
2022-09-05T02:45:08.709Z,1.30
2022-09-05T02:45:19.794Z,1.73
2022-09-05T02:47:13.238Z,1.30
2022-09-05T02:53:12.237Z,1.50
2022-09-05T02:57:36.182Z,1.70
2022-09-05T02:57:38.560Z,1.70
2022-09-05T02:59:11.747Z,1.45
2022-09-05T03:02:00.794Z,1.55
2022-09-05T03:04:52.320Z,1.50
2022-09-05T03:08:06.519Z,1.70
2022-09-05T03:10:54.623Z,1.52
2022-09-05T03:13:48.801Z,1.50
2022-09-05T03:16:58.899Z,1.40
2022-09-05T03:19:50.279Z,1.40
2022-09-05T03:22:16.958Z,1.90
2022-09-05T03:24:58.027Z,1.70
2022-09-05T03:27:51.630Z,1.70
2022-09-05T03:30:26.120Z,1.52
2022-09-05T03:33:27.671Z,1.90
2022-09-05T03:36:26.555Z,1.70
2022-09-05T03:38:53.232Z,1.70
2022-09-05T03:41:41.308Z,1.90
2022-09-05T03:44:40.514Z,1.65
2022-09-05T03:47:25.542Z,1.35
2022-09-05T03:56:48.638Z,1.30
2022-09-05T03:57:13.295Z,1.27
2022-09-05T03:57:27.547Z,1.70
2022-09-05T03:59:45.549Z,1.50
2022-09-05T04:03:29.432Z,1.40
2022-09-05T04:08:18.448Z,1.70
2022-09-05T04:08:31.484Z,1.70
2022-09-05T04:11:09.762Z,1.33
2022-09-05T04:16:44.550Z,1.63
2022-09-05T04:19:23.458Z,1.67
2022-09-05T04:22:02.403Z,1.40
2022-09-05T04:24:41.016Z,1.48
2022-09-05T04:27:37.200Z,1.70
2022-09-05T04:30:44.585Z,1.50
2022-09-05T04:33:35.867Z,1.40
2022-09-05T04:36:25.836Z,1.63
2022-09-05T04:39:19.791Z,1.50
2022-09-05T04:42:09.897Z,1.60
2022-09-05T04:45:02.871Z,1.65
2022-09-05T04:47:37.343Z,1.60
2022-09-05T04:50:14.267Z,1.40
2022-09-05T04:53:22.691Z,1.80
2022-09-05T04:55:52.434Z,1.85
2022-09-05T05:00:06.204Z,1.83
2022-09-05T05:06:05.846Z,1.80
2022-09-05T05:06:09.765Z,1.63
2022-09-05T05:07:33.816Z,1.58
2022-09-05T05:10:43.940Z,1.65
2022-09-05T05:17:56.702Z,2.20
2022-09-05T05:18:00.143Z,2.35
2022-09-05T05:19:17.253Z,1.70
2022-09-05T05:21:57.338Z,1.60
2022-09-05T05:24:30.082Z,2.03
2022-09-05T05:27:17.977Z,1.70
2022-09-05T05:30:45.375Z,2.10
2022-09-05T05:34:24.825Z,2.13
2022-09-05T05:37:42.385Z,1.92
2022-09-05T05:41:07.661Z,2.50
2022-09-05T05:43:46.713Z,2.13
2022-09-05T05:47:31.406Z,2.20
2022-09-05T05:55:08.060Z,2.20
2022-09-05T05:58:32.613Z,2.30
2022-09-05T06:01:37.605Z,2.10
2022-09-05T06:04:45.119Z,2.45
2022-09-05T06:07:45.135Z,2.20
2022-09-05T06:14:58.564Z,2.20
2022-09-05T06:15:04.946Z,2.35
2022-09-05T06:22:10.359Z,2.38
2022-09-05T06:29:11.444Z,2.40
2022-09-05T06:32:46.773Z,2.40
2022-09-05T06:35:53.041Z,2.50
2022-09-05T06:42:55.353Z,2.10
2022-09-05T06:46:10.531Z,1.98
2022-09-05T06:49:29.762Z,2.10
2022-09-05T06:52:28.320Z,2.03
2022-09-05T06:55:59.464Z,1.92
2022-09-05T07:05:44.948Z,1.77
2022-09-05T07:09:02.082Z,2.13
2022-09-05T07:12:19.450Z,1.90
2022-09-05T07:15:08.601Z,2.13
2022-09-05T07:18:23.181Z,1.90
2022-09-05T07:21:27.978Z,1.83
2022-09-05T07:28:29.077Z,2.08
2022-09-05T07:31:37.289Z,1.73
2022-09-05T07:34:32.116Z,1.83
2022-09-05T07:37:49.447Z,1.83
2022-09-05T07:56:54.765Z,1.70
2022-09-05T07:57:09.949Z,2.50
2022-09-05T07:58:39.779Z,2.03
2022-09-05T08:02:46.050Z,1.70
2022-09-05T08:04:44.080Z,2.10
2022-09-05T08:07:46.632Z,1.48
2022-09-05T08:14:52.527Z,1.88
2022-09-05T08:17:30.286Z,1.88
2022-09-05T08:20:17.966Z,1.80
2022-09-05T08:31:41.860Z,1.52
2022-09-05T08:41:51.172Z,1.48
2022-09-05T08:46:47.281Z,1.52
2022-09-05T09:03:06.609Z,1.63
2022-09-05T09:06:03.750Z,1.75
2022-09-05T09:09:07.906Z,1.50
2022-09-05T09:12:29.384Z,1.65
2022-09-05T09:20:43.518Z,1.60
2022-09-05T09:23:53.526Z,1.90
2022-09-05T09:28:49.596Z,1.80
2022-09-05T09:31:01.274Z,1.50
2022-09-05T09:42:33.543Z,1.92
2022-09-05T09:46:01.200Z,1.60
2022-09-05T09:49:25.736Z,1.33
2022-09-05T09:56:50.380Z,2.10
2022-09-05T09:59:55.350Z,1.80
2022-09-05T10:05:18.239Z,1.50
2022-09-05T10:10:44.734Z,1.40
2022-09-05T10:11:04.052Z,1.55
2022-09-05T10:14:29.091Z,1.60
2022-09-05T10:18:24.175Z,1.42
2022-09-05T10:21:41.510Z,1.40
2022-09-05T10:25:19.312Z,1.33
2022-09-05T10:28:06.130Z,1.55
2022-09-05T10:33:33.862Z,1.15
2022-09-05T10:35:08.086Z,1.23
2022-09-05T10:38:10.244Z,1.17
2022-09-05T10:45:04.822Z,1.10
2022-09-05T10:51:27.925Z,1.48
2022-09-05T10:54:28.914Z,1.05
2022-09-05T10:57:15.046Z,1.40
2022-09-05T11:02:22.309Z,1.50
2022-09-05T11:04:11.819Z,1.30
2022-09-05T11:06:42.657Z,1.02
2022-09-05T11:09:22.237Z,1.20
2022-09-05T11:12:07.395Z,1.25
2022-09-05T11:14:57.243Z,1.10
2022-09-05T11:18:03.850Z,1.30
2022-09-05T11:21:00.435Z,1.30
2022-09-05T11:24:09.228Z,1.20
2022-09-05T11:27:44.107Z,1.50
2022-09-05T11:30:44.320Z,1.00
2022-09-05T11:39:47.755Z,1.05
2022-09-05T11:41:56.883Z,3.08
2022-09-05T11:48:29.637Z,3.33
2022-09-05T11:55:52.804Z,2.10
2022-09-05T11:58:43.611Z,1.85
2022-09-05T12:01:44.281Z,1.30
2022-09-05T12:08:28.786Z,1.48
2022-09-05T12:15:20.368Z,1.30
2022-09-05T12:18:46.355Z,1.20
2022-09-05T12:21:31.878Z,1.77
2022-09-05T12:25:24.846Z,1.98
2022-09-05T12:33:52.408Z,1.35
2022-09-05T12:40:35.524Z,1.10
2022-09-05T12:43:44.954Z,0.90
2022-09-05T12:45:44.046Z,1.10
2022-09-05T12:53:03.995Z,1.00
2022-09-05T12:58:30.063Z,1.10
2022-09-05T13:03:06.072Z,0.98
2022-09-05T13:03:14.678Z,1.27
2022-09-05T13:06:25.402Z,0.95
2022-09-05T13:09:23.126Z,1.17
2022-09-05T13:15:54.620Z,1.10
2022-09-05T13:18:47.778Z,1.10
2022-09-05T13:21:31.477Z,1.10
2022-09-05T13:24:14.467Z,1.05
2022-09-05T13:27:29.502Z,1.10
2022-09-05T13:31:01.376Z,1.30
2022-09-05T13:38:11.509Z,1.02
2022-09-05T13:42:04.162Z,1.27
2022-09-05T13:44:41.002Z,1.30
2022-09-05T13:52:21.734Z,1.60
2022-09-05T13:55:00.568Z,1.00
2022-09-05T13:57:45.031Z,1.00
2022-09-05T14:00:27.625Z,1.17
2022-09-05T14:08:07.813Z,1.00
2022-09-05T14:10:57.505Z,1.00
2022-09-05T14:13:52.959Z,1.13
2022-09-05T14:21:01.519Z,1.40
2022-09-05T14:23:59.223Z,1.00
2022-09-05T14:27:40.973Z,1.10
2022-09-05T14:32:50.406Z,1.00
2022-09-05T14:37:44.261Z,1.00
2022-09-05T14:38:05.840Z,0.75
2022-09-05T14:44:41.630Z,0.98
2022-09-05T14:56:50.169Z,0.95
2022-09-05T15:02:54.231Z,0.90
2022-09-05T15:03:00.344Z,1.20
2022-09-05T15:05:51.220Z,1.05
2022-09-05T15:11:24.265Z,0.90
2022-09-05T15:12:33.253Z,1.10
2022-09-05T15:15:35.844Z,0.95
2022-09-05T15:18:26.294Z,0.80
2022-09-05T15:22:03.563Z,1.13
2022-09-05T15:24:38.030Z,1.20
2022-09-05T15:31:25.313Z,0.90
2022-09-05T15:35:08.624Z,0.80
2022-09-05T15:38:24.027Z,0.90
2022-09-05T15:41:26.428Z,0.98
2022-09-05T15:52:55.223Z,1.58
2022-09-05T15:56:36.537Z,1.08
2022-09-05T15:59:12.257Z,1.00
2022-09-05T16:02:39.769Z,1.00
2022-09-05T16:10:30.877Z,1.00
2022-09-05T16:10:41.145Z,1.02
2022-09-05T16:12:44.255Z,1.40
2022-09-05T16:20:39.436Z,1.38
2022-09-05T16:23:15.806Z,1.00
2022-09-05T16:24:59.721Z,1.50
2022-09-05T16:36:27.035Z,1.25
2022-09-05T16:39:17.819Z,1.27
2022-09-05T16:42:50.060Z,1.20
2022-09-05T16:46:12.182Z,0.98
2022-09-05T16:49:02.836Z,1.25
2022-09-05T17:00:36.389Z,1.00
2022-09-05T17:03:42.061Z,1.48
2022-09-05T17:07:42.218Z,1.77
2022-09-05T17:23:59.512Z,1.23
2022-09-05T17:29:26.429Z,1.52
2022-09-05T17:29:30.256Z,2.05
2022-09-05T17:32:49.968Z,1.73
2022-09-05T17:54:28.384Z,1.80
2022-09-05T18:04:51.273Z,1.70
2022-09-05T18:12:30.225Z,1.63
2022-09-05T18:15:52.298Z,1.50
2022-09-05T18:19:33.702Z,1.55
2022-09-05T18:25:51.630Z,1.58
2022-09-05T18:29:14.345Z,1.45
2022-09-05T18:31:43.820Z,1.58
2022-09-05T18:43:10.352Z,1.60
2022-09-05T18:46:08.282Z,1.58
2022-09-05T18:50:21.556Z,1.60
2022-09-05T18:52:45.022Z,1.60
2022-09-05T18:56:13.637Z,1.38
2022-09-05T18:59:14.609Z,1.83
2022-09-05T19:02:51.548Z,1.77
2022-09-05T19:06:37.990Z,1.60
2022-09-05T19:09:31.846Z,1.58
2022-09-05T19:12:55.229Z,1.60
2022-09-05T19:23:22.369Z,1.98
2022-09-05T19:26:02.085Z,1.52
2022-09-05T19:36:52.294Z,1.75
2022-09-05T19:36:57.589Z,1.67
2022-09-05T19:37:29.052Z,1.40
2022-09-05T19:47:31.416Z,1.67
2022-09-05T19:47:42.045Z,1.50
2022-09-05T19:47:49.924Z,1.95
2022-09-05T19:49:31.156Z,1.50
2022-09-05T19:52:26.552Z,1.77
2022-09-05T19:55:46.560Z,1.90
2022-09-05T19:58:20.799Z,1.75
2022-09-05T20:02:07.838Z,2.00
2022-09-05T20:04:53.379Z,1.77
2022-09-05T20:07:35.760Z,1.88
2022-09-05T20:18:26.228Z,1.70
2022-09-05T20:21:25.329Z,1.75
2022-09-05T20:24:42.791Z,1.70
2022-09-05T20:27:19.320Z,1.60
2022-09-05T20:30:04.217Z,2.15
2022-09-05T20:33:24.993Z,1.90
2022-09-05T20:44:27.134Z,2.33
2022-09-05T20:51:03.983Z,1.83
2022-09-05T20:54:28.529Z,2.00
2022-09-05T20:54:32.300Z,1.80
2022-09-05T21:09:30.183Z,2.15
2022-09-05T21:11:59.047Z,2.10
2022-09-05T21:14:28.433Z,1.90
2022-09-05T21:17:01.231Z,2.58
2022-09-05T21:19:43.655Z,2.20
2022-09-05T21:22:19.952Z,2.50
2022-09-05T21:24:47.278Z,2.22
2022-09-05T21:27:22.719Z,2.35
2022-09-05T21:29:56.578Z,1.90
2022-09-05T21:32:31.829Z,2.00
2022-09-05T21:35:34.827Z,1.77
2022-09-05T21:37:53.753Z,1.80
2022-09-05T21:40:21.286Z,1.83
2022-09-05T21:47:40.995Z,3.10
2022-09-05T21:47:44.369Z,2.17
2022-09-05T21:48:24.351Z,3.42
2022-09-05T21:50:53.317Z,2.63
2022-09-05T21:59:13.600Z,1.83
2022-09-05T21:59:17.794Z,1.92
2022-09-05T21:59:36.979Z,1.60
2022-09-05T22:01:59.421Z,2.00
2022-09-05T22:04:26.991Z,1.60
2022-09-05T22:06:57.495Z,1.52
2022-09-05T22:09:24.278Z,1.80
2022-09-05T22:11:51.437Z,2.25
2022-09-05T22:14:20.279Z,1.88
2022-09-05T22:16:50.370Z,1.80
2022-09-05T22:19:24.294Z,1.88
2022-09-05T22:21:53.785Z,1.90
2022-09-05T22:24:22.800Z,1.70
2022-09-05T22:27:11.602Z,2.00
2022-09-05T22:29:40.444Z,2.05
2022-09-05T22:32:07.631Z,1.98
2022-09-05T22:34:34.548Z,2.08
2022-09-05T22:37:01.218Z,1.73
2022-09-05T22:39:36.860Z,1.70
2022-09-05T22:42:10.107Z,1.92
2022-09-05T22:44:41.738Z,2.00
2022-09-05T22:47:10.079Z,1.73
2022-09-05T22:49:37.336Z,1.95
2022-09-05T22:52:08.494Z,1.63
2022-09-05T22:54:35.995Z,2.03
2022-09-05T22:57:04.123Z,2.05
2022-09-05T22:59:30.984Z,2.08
2022-09-05T23:01:58.141Z,1.70
2022-09-05T23:04:25.795Z,1.83
2022-09-05T23:06:52.618Z,1.85
2022-09-05T23:09:19.422Z,1.80
2022-09-05T23:11:46.113Z,1.83
2022-09-05T23:14:12.841Z,1.90
2022-09-05T23:16:39.537Z,2.08
2022-09-05T23:19:06.267Z,2.35
2022-09-05T23:21:34.240Z,1.88
2022-09-05T23:24:00.978Z,2.10
2022-09-05T23:26:27.718Z,2.08
2022-09-05T23:28:54.398Z,1.98
2022-09-05T23:31:21.206Z,1.95
2022-09-05T23:33:48.243Z,2.10
2022-09-05T23:36:15.119Z,1.98
2022-09-05T23:38:42.959Z,2.00
2022-09-05T23:41:12.818Z,1.70
2022-09-05T23:43:39.588Z,2.30
2022-09-05T23:46:06.842Z,2.20
2022-09-05T23:48:33.829Z,2.05
2022-09-05T23:51:10.026Z,1.90
2022-09-05T23:53:37.011Z,2.00
2022-09-05T23:56:05.546Z,2.00
2022-09-05T23:58:32.909Z,1.80
